createdAt,value
2018-05-01T00:02:03.122Z,76.40
2018-05-01T00:04:31.419Z,76.70
2018-05-01T00:06:59.744Z,76.00
2018-05-01T00:09:28.044Z,76.40
2018-05-01T00:11:56.366Z,76.60
2018-05-01T00:14:24.644Z,76.50
2018-05-01T00:16:52.985Z,76.50
2018-05-01T00:19:22.041Z,76.60
2018-05-01T00:21:50.351Z,76.50
2018-05-01T00:24:18.631Z,76.70
2018-05-01T00:26:46.951Z,77.10
2018-05-01T00:29:15.229Z,76.70
2018-05-01T00:31:43.532Z,76.70
2018-05-01T00:34:11.867Z,77.00
2018-05-01T00:36:40.236Z,77.30
2018-05-01T00:39:08.550Z,77.30
2018-05-01T00:41:36.884Z,77.80
2018-05-01T00:44:05.286Z,77.40
2018-05-01T00:46:33.662Z,77.70
2018-05-01T00:49:02.081Z,77.80
2018-05-01T00:51:30.489Z,77.60
2018-05-01T00:53:58.949Z,77.80
2018-05-01T00:56:27.378Z,77.60
2018-05-01T00:58:55.772Z,77.30
2018-05-01T01:01:24.121Z,77.40
2018-05-01T01:03:53.316Z,78.10
2018-05-01T01:06:21.697Z,77.40
2018-05-01T01:08:50.851Z,77.40
2018-05-01T01:11:19.162Z,77.40
2018-05-01T01:13:48.317Z,77.60
2018-05-01T01:16:16.594Z,77.50
2018-05-01T01:18:44.916Z,77.40
2018-05-01T01:21:13.196Z,77.70
2018-05-01T01:23:41.524Z,77.60
2018-05-01T01:26:09.796Z,77.20
2018-05-01T01:28:38.103Z,77.20
2018-05-01T01:31:06.373Z,77.00
2018-05-01T01:33:34.684Z,77.20
2018-05-01T01:36:03.238Z,76.80
2018-05-01T01:38:31.146Z,76.80
2018-05-01T01:40:58.976Z,78.10
2018-05-01T01:43:26.884Z,78.10
2018-05-01T01:45:54.764Z,78.90
2018-05-01T01:48:22.663Z,79.00
2018-05-01T01:50:50.474Z,80.00
2018-05-01T01:53:19.053Z,81.30
2018-05-01T01:55:46.857Z,81.20
2018-05-01T01:58:14.665Z,81.30
2018-05-01T02:00:42.504Z,81.30
2018-05-01T02:03:10.304Z,81.60
2018-05-01T02:05:38.908Z,81.90
2018-05-01T02:08:06.724Z,81.90
2018-05-01T02:10:34.559Z,82.10
2018-05-01T02:13:02.343Z,82.60
2018-05-01T02:15:30.154Z,82.80
2018-05-01T02:17:58.732Z,82.60
2018-05-01T02:20:26.544Z,82.40
2018-05-01T02:22:54.328Z,82.20
2018-05-01T02:25:22.141Z,82.50
2018-05-01T02:27:49.957Z,82.10
2018-05-01T02:30:17.917Z,82.90
2018-05-01T02:32:45.845Z,83.00
2018-05-01T02:35:13.794Z,83.40
2018-05-01T02:37:41.665Z,83.30
2018-05-01T02:40:09.542Z,83.50
2018-05-01T02:42:37.383Z,83.80
2018-05-01T02:45:06.116Z,83.20
2018-05-01T02:47:33.972Z,83.10
2018-05-01T02:50:02.601Z,83.70
2018-05-01T02:52:30.439Z,83.60
2018-05-01T02:54:58.377Z,84.10
2018-05-01T02:57:26.293Z,83.50
2018-05-01T02:59:54.180Z,83.40
2018-05-01T03:02:22.043Z,83.80
2018-05-01T03:04:49.956Z,83.00
2018-05-01T03:07:17.801Z,83.00
2018-05-01T03:09:45.776Z,83.40
2018-05-01T03:12:13.556Z,83.00
2018-05-01T03:14:42.189Z,83.20
2018-05-01T03:17:09.973Z,83.20
2018-05-01T03:19:37.800Z,83.20
2018-05-01T03:22:05.595Z,83.00
2018-05-01T03:24:33.434Z,82.80
2018-05-01T03:27:01.241Z,83.30
2018-05-01T03:29:29.048Z,83.20
2018-05-01T03:31:56.885Z,82.90
2018-05-01T03:34:24.672Z,82.90
2018-05-01T03:36:53.261Z,82.10
2018-05-01T03:39:21.828Z,81.30
2018-05-01T03:41:49.644Z,81.30
2018-05-01T03:44:17.442Z,81.80
2018-05-01T03:46:45.266Z,81.60
2018-05-01T03:49:13.056Z,81.60
2018-05-01T03:51:40.893Z,82.00
2018-05-01T03:54:08.704Z,81.80
2018-05-01T03:56:36.541Z,82.00
2018-05-01T03:59:04.345Z,81.80
2018-05-01T04:01:32.949Z,82.60
2018-05-01T04:04:01.513Z,81.90
2018-05-01T04:06:29.340Z,81.60
2018-05-01T04:08:57.999Z,82.60
2018-05-01T04:11:26.591Z,81.60
2018-05-01T04:13:55.136Z,80.80
2018-05-01T04:16:22.949Z,80.80
2018-05-01T04:18:50.755Z,80.70
2018-05-01T04:21:18.609Z,81.00
2018-05-01T04:23:46.480Z,81.40
2018-05-01T04:26:14.331Z,81.40
2018-05-01T04:28:42.179Z,81.60
2018-05-01T04:31:10.038Z,81.60
2018-05-01T04:33:37.866Z,81.60
2018-05-01T04:36:06.514Z,81.60
2018-05-01T04:38:34.372Z,81.60
2018-05-01T04:41:02.221Z,81.70
2018-05-01T04:43:30.110Z,81.20
2018-05-01T04:45:58.029Z,81.70
2018-05-01T04:48:26.659Z,81.50
2018-05-01T04:50:54.533Z,81.40
2018-05-01T04:53:22.388Z,81.20
2018-05-01T04:55:50.272Z,81.40
2018-05-01T04:58:18.147Z,81.40
2018-05-01T05:00:45.942Z,81.30
2018-05-01T05:03:13.768Z,81.20
2018-05-01T05:05:41.574Z,81.20
2018-05-01T05:08:09.406Z,81.00
2018-05-01T05:10:37.229Z,81.30
2018-05-01T05:13:05.101Z,81.30
2018-05-01T05:15:33.728Z,80.80
2018-05-01T05:18:01.638Z,80.70
2018-05-01T05:20:29.505Z,80.80
2018-05-01T05:22:58.208Z,80.90
2018-05-01T05:25:26.063Z,80.80
2018-05-01T05:27:54.729Z,80.70
2018-05-01T05:30:22.594Z,80.70
2018-05-01T05:32:50.424Z,80.60
2018-05-01T05:35:18.242Z,80.30
2018-05-01T05:37:46.070Z,80.90
2018-05-01T05:40:13.877Z,80.40
2018-05-01T05:42:42.481Z,79.10
2018-05-01T05:45:10.302Z,79.90
2018-05-01T05:47:38.146Z,79.10
2018-05-01T05:50:05.962Z,79.60
2018-05-01T05:52:34.549Z,79.60
2018-05-01T05:55:02.343Z,79.60
2018-05-01T05:57:30.166Z,79.90
2018-05-01T05:59:57.957Z,78.70
2018-05-01T06:02:25.772Z,78.80
2018-05-01T06:04:54.329Z,78.10
2018-05-01T06:07:22.160Z,78.10
2018-05-01T06:09:50.729Z,77.70
2018-05-01T06:12:18.540Z,77.70
2018-05-01T06:14:46.344Z,77.10
2018-05-01T06:17:14.153Z,77.30
2018-05-01T06:19:42.704Z,77.10
2018-05-01T06:22:10.555Z,77.10
2018-05-01T06:24:38.372Z,75.30
2018-05-01T06:27:06.161Z,75.10
2018-05-01T06:29:33.984Z,75.40
2018-05-01T06:32:01.797Z,74.70
2018-05-01T06:34:29.622Z,74.70
2018-05-01T06:36:58.200Z,74.20
2018-05-01T06:39:26.800Z,74.80
2018-05-01T06:41:55.352Z,74.10
2018-05-01T06:44:23.175Z,74.10
2018-05-01T06:46:50.970Z,73.50
2018-05-01T06:49:18.780Z,73.30
2018-05-01T06:51:47.345Z,72.10
2018-05-01T06:54:15.965Z,72.70
2018-05-01T06:56:43.753Z,72.60
2018-05-01T06:59:11.597Z,72.90
2018-05-01T07:01:39.428Z,72.60
2018-05-01T07:04:07.353Z,73.60
2018-05-01T07:06:35.283Z,73.80
2018-05-01T07:09:03.249Z,73.80
2018-05-01T07:11:31.892Z,73.00
2018-05-01T07:13:59.793Z,72.90
2018-05-01T07:16:28.378Z,72.20
2018-05-01T07:18:56.983Z,71.60
2018-05-01T07:21:24.773Z,71.60
2018-05-01T07:23:52.584Z,70.20
2018-05-01T07:26:20.385Z,70.60
2018-05-01T07:28:48.196Z,69.70
2018-05-01T07:31:15.985Z,70.70
2018-05-01T07:33:44.664Z,71.40
2018-05-01T07:36:13.252Z,70.40
2018-05-01T07:38:41.055Z,70.30
2018-05-01T07:41:08.869Z,69.50
2018-05-01T07:43:36.697Z,70.00
2018-05-01T07:46:04.486Z,70.10
2018-05-01T07:48:32.318Z,70.00
2018-05-01T07:51:00.099Z,70.00
2018-05-01T07:53:27.909Z,70.60
2018-05-01T07:55:55.749Z,69.10
2018-05-01T07:58:24.390Z,70.60
2018-05-01T08:00:52.312Z,70.60
2018-05-01T08:03:20.172Z,69.30
2018-05-01T08:05:48.051Z,70.10
2018-05-01T08:08:16.664Z,70.40
2018-05-01T08:10:44.548Z,70.40
2018-05-01T08:13:12.418Z,69.70
2018-05-01T08:15:40.316Z,70.30
2018-05-01T08:18:08.154Z,69.40
2018-05-01T08:20:36.034Z,69.60
2018-05-01T08:23:03.960Z,69.50
2018-05-01T08:25:32.611Z,69.30
2018-05-01T08:28:00.452Z,69.10
2018-05-01T08:30:28.396Z,69.10
2018-05-01T08:32:56.209Z,69.10
2018-05-01T08:35:24.864Z,69.60
2018-05-01T08:37:52.718Z,69.60
2018-05-01T08:40:20.573Z,70.70
2018-05-01T08:42:48.437Z,70.00
2018-05-01T08:45:17.145Z,67.80
2018-05-01T08:47:44.989Z,67.80
2018-05-01T08:50:13.669Z,69.10
2018-05-01T08:52:41.539Z,69.10
2018-05-01T08:55:09.393Z,69.20
2018-05-01T08:57:37.180Z,68.50
2018-05-01T09:00:05.751Z,68.10
2018-05-01T09:02:33.540Z,68.10
2018-05-01T09:05:02.134Z,67.20
2018-05-01T09:07:29.928Z,67.20
2018-05-01T09:09:57.744Z,67.60
2018-05-01T09:12:25.549Z,65.00
2018-05-01T09:14:53.392Z,63.40
2018-05-01T09:17:21.181Z,63.50
2018-05-01T09:19:48.964Z,61.80
2018-05-01T09:22:16.789Z,62.20
2018-05-01T09:24:44.598Z,63.30
2018-05-01T09:27:12.420Z,63.80
2018-05-01T09:29:40.210Z,63.30
2018-05-01T09:32:08.032Z,63.60
2018-05-01T09:34:36.593Z,62.90
2018-05-01T09:37:04.436Z,62.90
2018-05-01T09:39:32.232Z,62.40
2018-05-01T09:42:00.102Z,63.60
2018-05-01T09:44:27.873Z,61.70
2018-05-01T09:46:55.689Z,61.50
2018-05-01T09:49:23.488Z,61.40
2018-05-01T09:51:51.314Z,61.30
2018-05-01T09:54:19.605Z,61.50
2018-05-01T09:56:47.916Z,59.90
2018-05-01T09:59:16.288Z,59.60
2018-05-01T10:01:44.600Z,59.20
2018-05-01T10:04:12.919Z,58.10
2018-05-01T10:06:41.324Z,59.00
2018-05-01T10:09:09.626Z,59.10
2018-05-01T10:11:38.712Z,59.80
2018-05-01T10:14:06.992Z,59.80
2018-05-01T10:16:36.071Z,60.10
2018-05-01T10:19:04.373Z,60.00
2018-05-01T10:21:33.456Z,58.30
2018-05-01T10:24:01.740Z,58.30
2018-05-01T10:26:30.825Z,58.20
2018-05-01T10:28:59.136Z,58.10
2018-05-01T10:31:27.448Z,57.90
2018-05-01T10:33:55.745Z,58.50
2018-05-01T10:36:24.059Z,58.10
2018-05-01T10:38:53.123Z,57.60
2018-05-01T10:41:21.424Z,57.60
2018-05-01T10:43:50.475Z,57.60
2018-05-01T10:46:18.765Z,57.50
2018-05-01T10:48:47.072Z,55.80
2018-05-01T10:51:16.125Z,54.50
2018-05-01T10:53:44.436Z,54.40
2018-05-01T10:56:12.721Z,55.90
2018-05-01T10:58:41.812Z,53.50
2018-05-01T11:01:10.856Z,54.30
2018-05-01T11:03:39.176Z,54.30
2018-05-01T11:06:07.468Z,55.30
2018-05-01T11:08:36.538Z,53.10
2018-05-01T11:11:04.816Z,53.10
2018-05-01T11:13:33.136Z,50.50
2018-05-01T11:16:01.416Z,50.60
2018-05-01T11:18:29.728Z,51.50
2018-05-01T11:20:58.024Z,51.60
2018-05-01T11:23:26.345Z,52.70
2018-05-01T11:25:54.653Z,52.70
2018-05-01T11:28:22.960Z,53.50
2018-05-01T11:30:51.257Z,54.40
2018-05-01T11:33:20.345Z,50.50
2018-05-01T11:35:49.409Z,51.20
2018-05-01T11:38:17.726Z,51.10
2018-05-01T11:40:46.777Z,52.40
2018-05-01T11:43:15.085Z,52.40
2018-05-01T11:45:43.378Z,52.00
2018-05-01T11:48:12.456Z,50.90
2018-05-01T11:50:40.745Z,50.90
2018-05-01T11:53:09.073Z,51.20
2018-05-01T11:55:37.348Z,51.10
2018-05-01T11:58:05.665Z,50.00
2018-05-01T12:00:33.944Z,49.90
2018-05-01T12:03:03.027Z,51.50
2018-05-01T12:05:31.326Z,51.40
2018-05-01T12:07:59.638Z,50.00
2018-05-01T12:10:28.026Z,49.70
2018-05-01T12:12:56.328Z,50.10
2018-05-01T12:15:25.459Z,50.30
2018-05-01T12:17:54.620Z,51.10
2018-05-01T12:20:23.000Z,51.00
2018-05-01T12:22:51.338Z,50.70
2018-05-01T12:25:19.734Z,51.50
2018-05-01T12:27:53.972Z,51.40
2018-05-01T12:30:22.321Z,52.40
2018-05-01T12:32:50.664Z,52.60
2018-05-01T12:35:19.832Z,49.40
2018-05-01T12:37:48.295Z,49.40
2018-05-01T12:40:16.696Z,50.40
2018-05-01T12:42:45.016Z,48.20
2018-05-01T12:45:13.341Z,48.00
2018-05-01T12:47:41.620Z,47.70
2018-05-01T12:50:09.929Z,48.10
2018-05-01T12:52:38.984Z,47.40
2018-05-01T12:55:07.298Z,47.30
2018-05-01T12:57:36.384Z,49.50
2018-05-01T13:00:04.692Z,49.40
2018-05-01T13:02:32.976Z,48.80
2018-05-01T13:05:01.385Z,49.10
2018-05-01T13:07:29.593Z,47.60
2018-05-01T13:09:57.905Z,46.70
2018-05-01T13:12:26.225Z,47.20
2018-05-01T13:14:54.504Z,46.30
2018-05-01T13:17:22.812Z,46.70
2018-05-01T13:19:51.129Z,46.00
2018-05-01T13:22:19.421Z,46.70
2018-05-01T13:24:47.733Z,47.60
2018-05-01T13:27:16.066Z,47.30
2018-05-01T13:29:45.116Z,47.60
2018-05-01T13:32:13.404Z,47.60
2018-05-01T13:34:42.489Z,47.40
2018-05-01T13:37:10.772Z,47.30
2018-05-01T13:39:39.848Z,48.10
2018-05-01T13:42:08.146Z,48.10
2018-05-01T13:44:37.236Z,47.60
2018-05-01T13:47:05.515Z,47.50
2018-05-01T13:49:33.830Z,47.90
2018-05-01T13:52:02.107Z,48.20
2018-05-01T13:54:30.429Z,47.70
2018-05-01T13:56:58.717Z,48.10
2018-05-01T13:59:27.809Z,48.30
2018-05-01T14:01:56.092Z,48.20
2018-05-01T14:04:24.508Z,46.40
2018-05-01T14:06:52.775Z,46.30
2018-05-01T14:09:21.065Z,44.20
2018-05-01T14:11:49.381Z,44.30
2018-05-01T14:14:17.672Z,44.40
2018-05-01T14:16:46.060Z,43.50
2018-05-01T14:19:14.329Z,44.90
2018-05-01T14:21:42.656Z,43.50
2018-05-01T14:24:10.951Z,41.20
2018-05-01T14:26:39.265Z,40.70
2018-05-01T14:29:07.567Z,39.70
2018-05-01T14:31:35.888Z,38.50
2018-05-01T14:34:04.163Z,37.90
2018-05-01T14:36:32.485Z,37.30
2018-05-01T14:39:01.541Z,38.20
2018-05-01T14:41:29.876Z,38.60
2018-05-01T14:43:58.161Z,38.00
2018-05-01T14:46:26.475Z,36.80
2018-05-01T14:48:54.760Z,38.20
2018-05-01T14:51:23.069Z,37.70
2018-05-01T14:53:52.304Z,37.10
2018-05-01T14:56:20.768Z,37.10
2018-05-01T14:58:49.136Z,38.30
2018-05-01T15:01:17.515Z,38.30
2018-05-01T15:03:46.631Z,39.30
2018-05-01T15:06:15.008Z,39.30
2018-05-01T15:08:43.371Z,39.50
2018-05-01T15:11:11.714Z,39.80
2018-05-01T15:13:40.076Z,39.30
2018-05-01T15:16:08.487Z,41.40
2018-05-01T15:18:36.884Z,40.20
2018-05-01T15:21:06.068Z,40.00
2018-05-01T15:23:35.255Z,40.40
2018-05-01T15:26:03.624Z,40.40
2018-05-01T15:28:32.016Z,40.90
2018-05-01T15:31:00.329Z,40.30
2018-05-01T15:33:28.630Z,40.60
2018-05-01T15:35:56.944Z,40.90
2018-05-01T15:38:25.233Z,41.70
2018-05-01T15:40:53.542Z,41.30
2018-05-01T15:43:21.825Z,40.00
2018-05-01T15:45:50.117Z,38.20
2018-05-01T15:48:18.436Z,37.20
2018-05-01T15:50:46.730Z,37.40
2018-05-01T15:53:15.048Z,37.40
2018-05-01T15:55:43.369Z,36.90
2018-05-01T15:58:11.697Z,36.50
2018-05-01T16:00:40.000Z,37.00
2018-05-01T16:03:08.312Z,34.80
2018-05-01T16:05:37.359Z,36.20
2018-05-01T16:08:05.680Z,36.20
2018-05-01T16:10:33.969Z,35.20
2018-05-01T16:13:03.044Z,34.10
2018-05-01T16:15:31.332Z,34.10
2018-05-01T16:18:00.479Z,36.60
2018-05-01T16:20:28.813Z,36.50
2018-05-01T16:22:57.991Z,34.90
2018-05-01T16:25:26.321Z,34.90
2018-05-01T16:27:54.673Z,33.80
2018-05-01T16:30:23.798Z,35.40
2018-05-01T16:32:52.215Z,35.40
2018-05-01T16:35:20.568Z,34.10
2018-05-01T16:37:48.970Z,34.30
2018-05-01T16:40:17.413Z,34.60
2018-05-01T16:42:45.701Z,35.00
2018-05-01T16:45:14.030Z,34.70
2018-05-01T16:47:43.218Z,33.30
2018-05-01T16:50:11.572Z,33.20
2018-05-01T16:52:39.918Z,34.90
2018-05-01T16:55:08.272Z,33.10
2018-05-01T16:57:37.396Z,33.70
2018-05-01T17:00:05.722Z,33.60
2018-05-01T17:02:34.139Z,34.80
2018-05-01T17:05:02.476Z,33.80
2018-05-01T17:07:30.860Z,33.00
2018-05-01T17:09:59.197Z,33.10
2018-05-01T17:12:27.552Z,33.30
2018-05-01T17:14:55.896Z,34.80
2018-05-01T17:17:25.074Z,37.20
2018-05-01T17:19:53.428Z,37.20
2018-05-01T17:22:21.713Z,38.10
2018-05-01T17:24:50.028Z,38.70
2018-05-01T17:27:18.320Z,40.10
2018-05-01T17:29:46.673Z,41.20
2018-05-01T17:32:15.073Z,40.30
2018-05-01T17:34:44.296Z,40.50
2018-05-01T17:37:12.652Z,40.50
2018-05-01T17:39:41.764Z,42.70
2018-05-01T17:42:10.884Z,42.10
2018-05-01T17:44:39.223Z,42.10
2018-05-01T17:47:07.504Z,41.60
2018-05-01T17:49:35.823Z,41.90
2018-05-01T17:52:04.121Z,41.70
2018-05-01T17:54:32.428Z,45.80
2018-05-01T17:57:00.717Z,44.60
2018-05-01T17:59:29.804Z,47.80
2018-05-01T18:01:58.101Z,47.80
2018-05-01T18:04:27.177Z,48.60
2018-05-01T18:06:55.471Z,48.60
2018-05-01T18:09:23.789Z,49.50
2018-05-01T18:11:52.064Z,49.00
2018-05-01T18:14:20.380Z,49.20
2018-05-01T18:16:48.672Z,50.50
2018-05-01T18:19:17.772Z,54.00
2018-05-01T18:21:46.811Z,54.10
2018-05-01T18:24:15.133Z,53.40
2018-05-01T18:26:44.193Z,55.40
2018-05-01T18:29:12.510Z,55.40
2018-05-01T18:31:41.564Z,57.30
2018-05-01T18:34:09.876Z,57.30
2018-05-01T18:36:38.174Z,58.10
2018-05-01T18:39:07.239Z,59.60
2018-05-01T18:41:35.520Z,59.50
2018-05-01T18:44:03.848Z,60.00
2018-05-01T18:46:32.141Z,60.40
2018-05-01T18:49:00.472Z,60.20
2018-05-01T18:51:29.516Z,60.60
2018-05-01T18:53:57.837Z,60.50
2018-05-01T18:56:26.883Z,61.10
2018-05-01T18:58:55.168Z,61.00
2018-05-01T19:01:23.499Z,62.10
2018-05-01T19:03:52.533Z,62.40
2018-05-01T19:06:21.617Z,62.50
2018-05-01T19:08:49.914Z,62.50
2018-05-01T19:11:18.228Z,62.50
2018-05-01T19:13:47.276Z,63.70
2018-05-01T19:16:15.578Z,63.10
2018-05-01T19:18:43.865Z,63.80
2018-05-01T19:21:12.174Z,64.30
2018-05-01T19:23:40.452Z,64.30
2018-05-01T19:26:08.764Z,64.80
2018-05-01T19:28:37.057Z,65.00
2018-05-01T19:31:05.369Z,64.90
2018-05-01T19:33:34.428Z,65.90
2018-05-01T19:36:02.756Z,65.80
2018-05-01T19:38:31.124Z,66.40
2018-05-01T19:40:59.474Z,66.50
2018-05-01T19:43:27.797Z,66.70
2018-05-01T19:45:56.148Z,67.30
2018-05-01T19:48:24.507Z,67.60
2018-05-01T19:50:53.694Z,67.90
2018-05-01T19:53:22.067Z,68.10
2018-05-01T19:55:50.479Z,68.30
2018-05-01T19:58:19.615Z,68.50
2018-05-01T20:00:48.014Z,68.40
2018-05-01T20:03:16.384Z,69.10
2018-05-01T20:05:44.735Z,69.40
2018-05-01T20:08:13.058Z,69.80
2018-05-01T20:10:42.282Z,69.70
2018-05-01T20:13:11.394Z,69.90
2018-05-01T20:15:40.580Z,69.50
2018-05-01T20:18:08.921Z,69.50
2018-05-01T20:20:37.288Z,69.90
2018-05-01T20:23:05.669Z,70.20
2018-05-01T20:25:33.975Z,70.50
2018-05-01T20:28:02.244Z,70.50
2018-05-01T20:30:30.582Z,70.60
2018-05-01T20:32:58.883Z,71.00
2018-05-01T20:35:27.196Z,71.60
2018-05-01T20:37:55.464Z,71.60
2018-05-01T20:40:23.765Z,72.90
2018-05-01T20:42:52.049Z,73.70
2018-05-01T20:45:20.370Z,74.00
2018-05-01T20:47:48.654Z,73.60
2018-05-01T20:50:16.931Z,73.60
2018-05-01T20:52:45.237Z,73.80
2018-05-01T20:55:13.514Z,73.70
2018-05-01T20:57:41.818Z,73.80
2018-05-01T21:00:10.864Z,74.40
2018-05-01T21:02:39.173Z,74.30
2018-05-01T21:05:07.505Z,74.30
2018-05-01T21:07:35.827Z,74.80
2018-05-01T21:10:04.103Z,74.80
2018-05-01T21:12:32.415Z,74.80
2018-05-01T21:15:00.693Z,74.40
2018-05-01T21:17:29.000Z,74.50
2018-05-01T21:19:57.271Z,74.60
2018-05-01T21:22:25.580Z,74.80
2018-05-01T21:24:53.872Z,75.40
2018-05-01T21:27:22.189Z,75.60
2018-05-01T21:29:50.476Z,75.60
2018-05-01T21:32:18.790Z,75.50
2018-05-01T21:34:47.077Z,75.60
2018-05-01T21:37:15.387Z,75.90
2018-05-01T21:39:43.683Z,76.50
2018-05-01T21:42:12.000Z,77.40
2018-05-01T21:44:40.272Z,78.70
2018-05-01T21:47:08.589Z,78.60
2018-05-01T21:49:37.634Z,77.80
2018-05-01T21:52:05.933Z,77.60
2018-05-01T21:54:34.211Z,77.60
2018-05-01T21:57:02.525Z,77.10
2018-05-01T21:59:30.817Z,77.30
2018-05-01T22:01:59.133Z,77.20
2018-05-01T22:04:27.416Z,77.50
2018-05-01T22:06:55.712Z,76.70
2018-05-01T22:09:24.771Z,78.00
2018-05-01T22:11:53.107Z,78.00
2018-05-01T22:14:21.453Z,78.30
2018-05-01T22:16:49.808Z,78.30
2018-05-01T22:19:18.150Z,78.40
2018-05-01T22:21:46.455Z,78.50
2018-05-01T22:24:14.764Z,78.30
2018-05-01T22:26:43.825Z,80.40
2018-05-01T22:29:12.130Z,80.40
2018-05-01T22:31:40.401Z,80.90
2018-05-01T22:34:08.712Z,80.40
2018-05-01T22:36:36.996Z,80.80
2018-05-01T22:39:05.328Z,80.60
2018-05-01T22:41:33.600Z,80.40
2018-05-01T22:44:01.913Z,79.90
2018-05-01T22:46:30.959Z,79.10
2018-05-01T22:48:59.273Z,79.10
2018-05-01T22:51:27.541Z,79.00
2018-05-01T22:53:55.845Z,78.70
2018-05-01T22:56:24.121Z,78.70
2018-05-01T22:58:52.420Z,78.70
2018-05-01T23:01:20.693Z,78.60
2018-05-01T23:03:49.001Z,78.70
2018-05-01T23:06:17.284Z,78.50
2018-05-01T23:08:45.603Z,78.70
2018-05-01T23:11:14.649Z,78.80
2018-05-01T23:13:42.974Z,78.70
2018-05-01T23:16:12.025Z,78.80
2018-05-01T23:18:40.336Z,78.80
2018-05-01T23:21:08.644Z,78.90
2018-05-01T23:23:36.955Z,79.10
2018-05-01T23:26:05.236Z,79.20
2018-05-01T23:28:33.563Z,79.40
2018-05-01T23:31:02.604Z,79.10
2018-05-01T23:36:41.833Z,79.10
2018-05-01T23:39:10.141Z,78.80
2018-05-01T23:41:38.412Z,79.10
2018-05-01T23:44:06.730Z,79.00
2018-05-01T23:46:35.005Z,79.60
2018-05-01T23:49:03.329Z,79.80
2018-05-01T23:51:31.629Z,80.10
2018-05-01T23:53:59.957Z,80.70
2018-05-01T23:56:28.232Z,81.10
2018-05-01T23:58:57.368Z,80.90
